Rolette, North Dakota
Current Conditions -  °F | °C
As of 2:35 PM on Monday 26 Jan 2015 (Local Time) from K06D Reporting Station
Clear Clear  
Wind Chill: 28°   Ceiling: Unl
Heat Index: 37°   Visibility: 10mi
Dew Point: 32°   Wind: 17mph
Humidity: 81%   Direction: 330°NNW
Pressure: 29.89"   Gusts: 23mph
Location:  48.66°N, 99.84°W
Report Text: K06D 262035Z AUTO 33015G20KT 10SM CLR 03/00 A2989 RMK AO2
Loading
Personal Weather Stations






























Interactive Weather Map New forecast layout! Learn more

10-Day Weather Forecast

Advertisements
Track Severe Weather on mobile